createdAt,value
2022-11-09T00:00:39.948Z,13.20
2022-11-09T00:03:08.804Z,17.60
2022-11-09T00:05:36.199Z,16.00
2022-11-09T00:08:06.058Z,13.82
2022-11-09T00:10:33.544Z,17.65
2022-11-09T00:13:00.986Z,13.52
2022-11-09T00:15:28.356Z,14.85
2022-11-09T00:17:55.821Z,11.65
2022-11-09T00:20:24.579Z,15.50
2022-11-09T00:22:51.953Z,12.47
2022-11-09T00:25:19.347Z,11.85
2022-11-09T00:27:46.726Z,12.98
2022-11-09T00:30:14.331Z,9.00
2022-11-09T00:32:41.763Z,13.98
2022-11-09T00:35:09.584Z,18.80
2022-11-09T00:37:38.465Z,13.73
2022-11-09T00:40:06.487Z,12.05
2022-11-09T00:42:33.866Z,13.27
2022-11-09T00:45:01.258Z,13.40
2022-11-09T00:47:28.659Z,14.30
2022-11-09T00:49:56.760Z,19.30
2022-11-09T00:52:24.227Z,17.23
2022-11-09T00:54:52.973Z,20.58
2022-11-09T00:57:20.324Z,17.40
2022-11-09T00:59:47.680Z,15.02
2022-11-09T01:02:15.118Z,15.25
2022-11-09T01:04:42.474Z,15.25
2022-11-09T01:07:09.884Z,20.90
2022-11-09T01:09:37.584Z,16.08
2022-11-09T01:12:06.460Z,13.20
2022-11-09T01:14:33.854Z,15.15
2022-11-09T01:17:01.244Z,16.83
2022-11-09T01:19:28.709Z,16.85
2022-11-09T01:21:56.076Z,15.00
2022-11-09T01:24:23.462Z,20.92
2022-11-09T01:26:50.861Z,17.65
2022-11-09T01:29:19.607Z,14.52
2022-11-09T01:31:48.461Z,15.07
2022-11-09T01:34:17.341Z,19.37
2022-11-09T01:36:44.762Z,16.77
2022-11-09T01:39:12.154Z,25.33
2022-11-09T01:41:39.617Z,14.02
2022-11-09T01:44:08.431Z,14.85
2022-11-09T01:46:39.530Z,13.33
2022-11-09T01:49:11.622Z,16.83
2022-11-09T01:51:40.762Z,11.60
2022-11-09T01:54:10.928Z,10.38
2022-11-09T01:56:38.807Z,13.95
2022-11-09T01:59:08.248Z,11.82
2022-11-09T02:01:36.530Z,12.73
2022-11-09T02:04:06.698Z,13.45
2022-11-09T02:06:34.449Z,15.43
2022-11-09T02:09:05.894Z,14.07
2022-11-09T02:11:33.442Z,18.70
2022-11-09T02:14:01.646Z,16.10
2022-11-09T02:16:29.123Z,14.15
2022-11-09T02:18:58.141Z,17.73
2022-11-09T02:21:28.067Z,16.40
2022-11-09T02:23:55.718Z,11.50
2022-11-09T02:26:25.294Z,14.88
2022-11-09T02:28:54.221Z,20.45
2022-11-09T02:31:23.546Z,19.80
2022-11-09T02:33:55.254Z,13.07
2022-11-09T02:36:23.278Z,21.00
2022-11-09T02:38:52.559Z,11.23
2022-11-09T02:41:21.279Z,15.55
2022-11-09T02:43:49.249Z,11.88
2022-11-09T02:46:22.278Z,11.10
2022-11-09T02:48:49.736Z,9.23
2022-11-09T02:51:17.140Z,10.82
2022-11-09T02:53:44.559Z,7.57
2022-11-09T02:56:13.279Z,9.80
2022-11-09T02:58:40.680Z,16.65
2022-11-09T03:01:08.189Z,20.75
2022-11-09T03:03:35.775Z,21.02
2022-11-09T03:06:03.243Z,20.13
2022-11-09T03:08:30.707Z,19.55
2022-11-09T03:10:59.893Z,15.40
2022-11-09T03:13:28.859Z,16.85
2022-11-09T03:15:56.256Z,20.83
2022-11-09T03:18:23.652Z,17.58
2022-11-09T03:20:51.060Z,15.15
2022-11-09T03:23:18.959Z,16.63
2022-11-09T03:25:46.516Z,22.30
2022-11-09T03:28:13.937Z,18.85
2022-11-09T03:30:42.698Z,19.50
2022-11-09T03:33:10.398Z,19.53
2022-11-09T03:35:38.242Z,12.70
2022-11-09T03:38:05.725Z,13.02
2022-11-09T03:40:33.184Z,17.30
2022-11-09T03:43:00.531Z,21.63
2022-11-09T03:45:28.789Z,15.35
2022-11-09T03:48:00.170Z,14.43
2022-11-09T03:50:28.422Z,18.88
2022-11-09T03:52:55.827Z,13.00
2022-11-09T03:55:23.498Z,19.63
2022-11-09T03:57:51.181Z,17.25
2022-11-09T04:00:19.548Z,18.63
2022-11-09T04:02:46.919Z,14.25
2022-11-09T04:05:15.883Z,12.38
2022-11-09T04:07:47.790Z,12.13
2022-11-09T04:10:15.229Z,11.77
2022-11-09T04:12:42.656Z,12.23
2022-11-09T04:15:10.491Z,16.38
2022-11-09T04:17:37.894Z,14.80
2022-11-09T04:20:05.627Z,13.00
2022-11-09T04:22:34.761Z,15.30
2022-11-09T04:25:02.144Z,12.15
2022-11-09T04:27:30.634Z,10.43
2022-11-09T04:29:58.015Z,11.85
2022-11-09T04:32:25.405Z,14.32
2022-11-09T04:34:52.799Z,21.58
2022-11-09T04:37:20.168Z,17.55
2022-11-09T04:39:48.916Z,22.35
2022-11-09T04:42:16.359Z,17.03
2022-11-09T04:44:43.769Z,14.80
2022-11-09T04:47:11.180Z,15.95
2022-11-09T04:49:38.612Z,8.00
2022-11-09T04:52:05.988Z,18.85
2022-11-09T04:54:33.927Z,13.13
2022-11-09T04:57:02.669Z,11.00
2022-11-09T04:59:30.071Z,21.97
2022-11-09T05:01:57.459Z,20.92
2022-11-09T05:04:24.833Z,17.05
2022-11-09T05:06:52.218Z,12.55
2022-11-09T05:09:19.715Z,15.27
2022-11-09T05:11:47.136Z,16.17
2022-11-09T05:14:16.076Z,16.85
2022-11-09T05:16:43.494Z,15.32
2022-11-09T05:19:10.962Z,19.30
2022-11-09T05:21:38.539Z,11.65
2022-11-09T05:24:05.193Z,11.65
2022-11-09T05:26:33.426Z,16.80
2022-11-09T05:29:01.388Z,11.25
2022-11-09T05:31:30.372Z,9.90
2022-11-09T05:33:59.265Z,8.07
2022-11-09T05:36:27.765Z,12.25
2022-11-09T05:38:55.561Z,10.93
2022-11-09T05:41:23.032Z,12.82
2022-11-09T05:43:50.479Z,14.10
2022-11-09T05:46:18.747Z,12.60
2022-11-09T05:48:47.745Z,14.25
2022-11-09T05:51:15.738Z,12.90
2022-11-09T05:53:46.446Z,18.55
2022-11-09T05:56:14.839Z,15.10
2022-11-09T05:58:42.294Z,18.02
2022-11-09T06:01:10.458Z,19.83
2022-11-09T06:03:37.953Z,17.60
2022-11-09T06:06:08.864Z,12.60
2022-11-09T06:08:36.619Z,10.35
2022-11-09T06:11:05.523Z,14.68
2022-11-09T06:13:33.376Z,13.85
2022-11-09T06:16:02.379Z,14.70
2022-11-09T06:18:30.939Z,20.90
2022-11-09T06:20:59.653Z,17.85
2022-11-09T06:23:29.348Z,8.52
2022-11-09T06:25:58.107Z,14.93
2022-11-09T06:28:25.715Z,14.55
2022-11-09T06:30:53.136Z,12.98
2022-11-09T06:33:20.796Z,15.98
2022-11-09T06:35:53.438Z,10.98
2022-11-09T06:38:23.465Z,11.90
2022-11-09T06:40:53.427Z,13.57
2022-11-09T06:43:21.141Z,15.93
2022-11-09T06:45:48.881Z,12.13
2022-11-09T06:48:16.282Z,12.70
2022-11-09T06:50:44.391Z,13.68
2022-11-09T06:53:12.935Z,12.68
2022-11-09T06:55:43.366Z,14.38
2022-11-09T06:58:16.696Z,17.02
2022-11-09T07:00:44.519Z,19.60
2022-11-09T07:03:14.425Z,15.05
2022-11-09T07:05:41.863Z,16.02
2022-11-09T07:08:09.245Z,11.48
2022-11-09T07:10:37.164Z,17.63
2022-11-09T07:13:04.718Z,11.75
2022-11-09T07:15:33.553Z,11.20
2022-11-09T07:18:01.976Z,13.67
2022-11-09T07:20:29.659Z,17.08
2022-11-09T07:22:57.096Z,11.23
2022-11-09T07:25:25.070Z,11.40
2022-11-09T07:27:52.735Z,10.98
2022-11-09T07:30:20.185Z,12.57
2022-11-09T07:35:36.296Z,16.97
2022-11-09T07:38:03.719Z,13.70
2022-11-09T07:40:31.181Z,12.32
2022-11-09T07:42:59.068Z,17.23
2022-11-09T07:45:26.629Z,14.75
2022-11-09T07:47:57.376Z,19.30
2022-11-09T07:50:24.853Z,20.67
2022-11-09T07:52:52.246Z,15.63
2022-11-09T07:55:19.619Z,16.35
2022-11-09T07:57:47.150Z,13.20
2022-11-09T08:00:19.875Z,16.98
2022-11-09T08:02:50.219Z,13.65
2022-11-09T08:05:18.988Z,13.80
2022-11-09T08:07:46.550Z,13.97
2022-11-09T08:10:14.021Z,13.65
2022-11-09T08:12:41.425Z,14.18
2022-11-09T08:15:09.323Z,13.95
2022-11-09T08:17:36.707Z,17.65
2022-11-09T08:20:04.256Z,12.85
2022-11-09T08:22:32.992Z,13.13
2022-11-09T08:25:00.380Z,13.43
2022-11-09T08:27:39.923Z,11.07
2022-11-09T08:30:08.429Z,11.52
2022-11-09T08:32:35.963Z,11.98
2022-11-09T08:35:03.631Z,8.85
2022-11-09T08:37:31.037Z,13.50
2022-11-09T08:39:59.768Z,17.58
2022-11-09T08:42:27.180Z,14.13
2022-11-09T08:44:54.771Z,10.82
2022-11-09T08:47:22.302Z,14.55
2022-11-09T08:49:50.523Z,11.52
2022-11-09T08:52:18.205Z,9.00
2022-11-09T08:54:45.616Z,13.63
2022-11-09T08:57:14.364Z,13.35
2022-11-09T08:59:41.749Z,16.07
2022-11-09T09:02:10.523Z,11.50
2022-11-09T09:04:37.966Z,13.60
2022-11-09T09:07:05.376Z,13.63
2022-11-09T09:09:33.172Z,16.08
2022-11-09T09:12:00.659Z,16.98
2022-11-09T09:14:29.806Z,13.88
2022-11-09T09:16:57.210Z,9.60
2022-11-09T09:19:24.625Z,10.60
2022-11-09T09:21:52.067Z,15.60
2022-11-09T09:24:19.483Z,13.68
2022-11-09T09:26:49.166Z,13.23
2022-11-09T09:34:14.799Z,14.50
2022-11-09T09:36:47.668Z,19.07
2022-11-09T09:39:15.956Z,11.75
2022-11-09T09:44:18.249Z,13.98
2022-11-09T09:46:48.502Z,17.60
2022-11-09T09:49:19.639Z,14.68
2022-11-09T09:51:50.030Z,13.75
2022-11-09T09:54:19.736Z,12.98
2022-11-09T09:56:48.231Z,16.97
2022-11-09T09:59:19.391Z,12.73
2022-11-09T10:01:46.923Z,17.53
2022-11-09T10:04:18.432Z,15.52
2022-11-09T10:06:50.654Z,15.55
2022-11-09T10:09:23.338Z,13.27
2022-11-09T10:11:59.953Z,15.80
2022-11-09T10:14:36.025Z,14.75
2022-11-09T10:17:07.439Z,17.33
2022-11-09T10:19:44.020Z,13.60
2022-11-09T10:22:13.250Z,15.50
2022-11-09T10:24:58.745Z,14.18
2022-11-09T10:27:35.072Z,13.68
2022-11-09T10:30:02.899Z,16.17
2022-11-09T10:32:31.368Z,11.35
2022-11-09T10:35:04.143Z,13.43
2022-11-09T10:37:34.039Z,14.10
2022-11-09T10:40:05.305Z,13.38
2022-11-09T10:42:32.713Z,13.75
2022-11-09T10:45:01.240Z,11.70
2022-11-09T10:47:28.699Z,11.30
2022-11-09T10:50:09.423Z,10.05
2022-11-09T10:52:44.531Z,7.35
2022-11-09T10:55:18.710Z,6.35
2022-11-09T10:57:55.030Z,8.05
2022-11-09T11:00:22.561Z,9.30
2022-11-09T11:02:51.946Z,5.53
2022-11-09T11:05:33.444Z,8.68
2022-11-09T11:08:27.985Z,7.97
2022-11-09T11:11:32.205Z,10.43
2022-11-09T11:14:06.848Z,11.98
2022-11-09T11:16:35.215Z,9.65
2022-11-09T11:19:03.159Z,10.80
2022-11-09T11:21:32.304Z,9.57
2022-11-09T11:24:16.330Z,9.57
2022-11-09T11:26:47.543Z,9.88
2022-11-09T11:29:25.446Z,9.35
2022-11-09T11:31:53.080Z,10.75
2022-11-09T11:34:45.633Z,7.68
2022-11-09T11:37:17.644Z,10.98
2022-11-09T11:39:53.493Z,10.65
2022-11-09T11:42:31.906Z,16.60
2022-11-09T11:45:33.493Z,15.65
2022-11-09T11:47:58.287Z,13.65
2022-11-09T11:50:31.867Z,12.73
2022-11-09T11:53:09.707Z,18.50
2022-11-09T11:55:53.876Z,16.00
2022-11-09T11:58:26.639Z,21.55
2022-11-09T12:00:59.748Z,15.85
2022-11-09T12:03:33.656Z,14.90
2022-11-09T12:06:11.294Z,17.85
2022-11-09T12:08:45.967Z,19.38
2022-11-09T12:11:17.359Z,13.85
2022-11-09T12:13:51.360Z,19.30
2022-11-09T12:16:23.539Z,11.70
2022-11-09T12:18:55.548Z,10.40
2022-11-09T12:21:25.449Z,14.93
2022-11-09T12:24:01.053Z,19.25
2022-11-09T12:26:35.278Z,22.60
2022-11-09T12:29:08.886Z,26.17
2022-11-09T12:31:43.018Z,21.45
2022-11-09T12:34:14.344Z,23.02
2022-11-09T12:36:43.797Z,25.00
2022-11-09T12:39:15.587Z,18.95
2022-11-09T12:41:43.463Z,10.80
2022-11-09T12:44:16.891Z,12.73
2022-11-09T12:46:46.217Z,13.38
2022-11-09T12:49:21.455Z,19.88
2022-11-09T12:51:48.825Z,11.77
2022-11-09T12:54:17.738Z,15.00
2022-11-09T12:56:52.799Z,16.20
2022-11-09T12:59:21.029Z,12.18
2022-11-09T13:01:49.552Z,19.20
2022-11-09T13:04:18.439Z,16.88
2022-11-09T13:07:10.740Z,13.53
2022-11-09T13:09:44.699Z,18.98
2022-11-09T13:12:34.062Z,22.95
2022-11-09T13:15:13.950Z,12.27
2022-11-09T13:18:02.203Z,12.40
2022-11-09T13:20:55.883Z,11.52
2022-11-09T13:24:00.198Z,11.85
2022-11-09T13:26:43.396Z,11.52
2022-11-09T13:29:22.165Z,13.27
2022-11-09T13:32:20.308Z,17.77
2022-11-09T13:34:48.744Z,13.55
2022-11-09T13:37:49.405Z,12.00
2022-11-09T13:40:35.882Z,13.02
2022-11-09T13:43:04.847Z,11.35
2022-11-09T13:45:36.485Z,11.85
2022-11-09T13:48:04.417Z,10.63
2022-11-09T13:50:33.220Z,10.77
2022-11-09T13:53:00.984Z,13.17
2022-11-09T13:55:32.903Z,11.32
2022-11-09T13:58:03.028Z,11.25
2022-11-09T14:00:30.423Z,11.40
2022-11-09T14:03:00.496Z,7.03
2022-11-09T14:05:29.755Z,17.02
2022-11-09T14:08:01.751Z,16.45
2022-11-09T14:10:47.150Z,11.65
2022-11-09T14:13:25.140Z,9.10
2022-11-09T14:15:55.787Z,8.43
2022-11-09T14:18:32.949Z,14.88
2022-11-09T14:21:06.168Z,9.20
2022-11-09T14:23:33.882Z,12.23
2022-11-09T14:26:07.523Z,9.68
2022-11-09T14:28:36.470Z,7.22
2022-11-09T14:31:03.861Z,10.95
2022-11-09T14:33:34.760Z,13.88
2022-11-09T14:36:02.908Z,11.18
2022-11-09T14:38:32.042Z,10.45
2022-11-09T14:40:59.695Z,10.20
2022-11-09T14:43:29.375Z,12.15
2022-11-09T14:48:24.872Z,13.90
2022-11-09T14:50:55.155Z,9.88
2022-11-09T14:53:26.083Z,10.20
2022-11-09T14:55:54.508Z,14.70
2022-11-09T14:58:22.441Z,9.60
2022-11-09T15:01:05.100Z,7.50
2022-11-09T15:03:32.677Z,6.82
2022-11-09T15:06:09.264Z,6.07
2022-11-09T15:08:37.673Z,8.15
2022-11-09T15:11:05.156Z,6.47
2022-11-09T15:13:33.902Z,4.00
2022-11-09T15:16:01.532Z,8.37
2022-11-09T15:18:33.984Z,6.35
2022-11-09T15:21:12.705Z,8.40
2022-11-09T15:23:41.134Z,11.82
2022-11-09T15:26:24.650Z,7.90
2022-11-09T15:28:52.380Z,6.45
2022-11-09T15:31:22.602Z,9.05
2022-11-09T15:33:51.159Z,8.30
2022-11-09T15:36:31.339Z,6.78
2022-11-09T15:39:00.302Z,7.45
2022-11-09T15:41:27.997Z,13.18
2022-11-09T15:43:55.579Z,8.00
2022-11-09T15:46:23.969Z,8.02
2022-11-09T15:48:51.623Z,7.20
2022-11-09T15:51:19.130Z,6.63
2022-11-09T15:53:47.919Z,9.20
2022-11-09T15:56:16.956Z,7.90
2022-11-09T15:58:44.603Z,9.32
2022-11-09T16:01:12.098Z,8.02
2022-11-09T16:03:39.529Z,12.15
2022-11-09T16:06:07.146Z,6.95
2022-11-09T16:08:34.547Z,5.07
2022-11-09T16:11:05.661Z,6.93
2022-11-09T16:13:33.061Z,7.60
2022-11-09T16:16:03.968Z,9.95
2022-11-09T16:18:31.772Z,6.82
2022-11-09T16:20:59.773Z,6.65
2022-11-09T16:23:27.455Z,6.90
2022-11-09T16:25:54.796Z,8.18
2022-11-09T16:28:24.425Z,9.23
2022-11-09T16:33:19.032Z,7.32
2022-11-09T16:35:46.423Z,4.50
2022-11-09T16:38:13.828Z,6.45
2022-11-09T16:40:41.252Z,7.10
2022-11-09T16:43:08.620Z,7.20
2022-11-09T16:45:37.406Z,6.85
2022-11-09T16:48:05.684Z,10.40
2022-11-09T16:50:33.045Z,12.48
2022-11-09T16:53:00.432Z,7.95
2022-11-09T16:55:27.808Z,8.77
2022-11-09T16:57:55.200Z,5.47
2022-11-09T17:00:27.602Z,8.73
2022-11-09T17:03:06.395Z,7.28
2022-11-09T17:05:33.785Z,5.23
2022-11-09T17:08:01.184Z,8.10
2022-11-09T17:10:28.578Z,7.43
2022-11-09T17:12:56.112Z,5.88
2022-11-09T17:15:23.523Z,6.65
2022-11-09T17:17:50.943Z,8.43
2022-11-09T17:20:19.773Z,4.70
2022-11-09T17:22:48.067Z,8.87
2022-11-09T17:25:16.372Z,7.30
2022-11-09T17:27:43.762Z,10.23
2022-11-09T17:30:11.757Z,8.30
2022-11-09T17:32:40.753Z,10.68
2022-11-09T17:35:08.352Z,9.10
2022-11-09T17:37:37.096Z,8.13
2022-11-09T17:40:04.731Z,4.37
2022-11-09T17:42:34.216Z,5.20
2022-11-09T17:45:01.595Z,3.60
2022-11-09T17:47:29.447Z,3.25
2022-11-09T17:49:56.869Z,4.65
2022-11-09T17:52:24.291Z,6.22
2022-11-09T17:54:53.146Z,8.82
2022-11-09T17:57:20.763Z,4.90
2022-11-09T17:59:48.133Z,10.52
2022-11-09T18:02:15.707Z,6.78
2022-11-09T18:04:43.123Z,7.28
2022-11-09T18:07:10.705Z,9.85
2022-11-09T18:09:42.589Z,12.63
2022-11-09T18:12:11.845Z,9.55
2022-11-09T18:14:39.279Z,7.07
2022-11-09T18:17:06.798Z,8.45
2022-11-09T18:19:34.248Z,13.38
2022-11-09T18:22:03.350Z,8.18
2022-11-09T18:24:31.777Z,9.68
2022-11-09T18:26:59.190Z,7.38
2022-11-09T18:29:28.062Z,7.75
2022-11-09T18:31:55.500Z,14.48
2022-11-09T18:34:23.048Z,6.57
2022-11-09T18:36:50.484Z,8.60
2022-11-09T18:39:17.936Z,9.55
2022-11-09T18:41:45.385Z,8.48
2022-11-09T18:44:12.814Z,11.68
2022-11-09T18:46:41.573Z,8.95
2022-11-09T18:49:13.948Z,10.17
2022-11-09T18:51:41.812Z,13.05
2022-11-09T18:54:09.224Z,6.45
2022-11-09T18:56:36.652Z,7.00
2022-11-09T18:59:04.058Z,7.55
2022-11-09T19:01:31.443Z,7.60
2022-11-09T19:04:01.869Z,7.97
2022-11-09T19:06:29.525Z,7.80
2022-11-09T19:09:14.673Z,6.03
2022-11-09T19:11:42.237Z,8.45
2022-11-09T19:14:09.963Z,7.47
2022-11-09T19:16:37.385Z,9.18
2022-11-09T19:19:06.290Z,8.68
2022-11-09T19:21:36.165Z,8.65
2022-11-09T19:24:03.908Z,9.35
2022-11-09T19:26:32.107Z,9.43
2022-11-09T19:28:59.814Z,8.38
2022-11-09T19:31:27.350Z,11.35
2022-11-09T19:33:54.789Z,9.07
2022-11-09T19:36:30.180Z,13.13
2022-11-09T19:38:58.866Z,12.18
2022-11-09T19:41:26.515Z,11.77
2022-11-09T19:43:56.577Z,12.82
2022-11-09T19:46:23.999Z,13.38
2022-11-09T19:48:51.439Z,10.07
2022-11-09T19:51:19.180Z,11.55
2022-11-09T19:53:51.111Z,5.97
2022-11-09T19:56:18.536Z,11.25
2022-11-09T19:58:48.981Z,9.20
2022-11-09T20:01:16.705Z,13.63
2022-11-09T20:03:44.135Z,8.88
2022-11-09T20:06:11.568Z,12.32
2022-11-09T20:08:38.981Z,6.72
2022-11-09T20:11:08.573Z,12.25
2022-11-09T20:13:35.079Z,8.55
2022-11-09T20:16:03.372Z,7.97
2022-11-09T20:18:30.766Z,8.90
2022-11-09T20:20:58.162Z,11.27
2022-11-09T20:23:25.596Z,10.98
2022-11-09T20:25:53.025Z,10.98
2022-11-09T20:28:24.116Z,9.88
2022-11-09T20:30:51.645Z,10.95
2022-11-09T20:33:19.275Z,7.03
2022-11-09T20:35:52.188Z,7.43
2022-11-09T20:38:20.009Z,5.40
2022-11-09T20:40:53.503Z,13.85
2022-11-09T20:43:22.370Z,12.48
2022-11-09T20:45:49.756Z,11.57
2022-11-09T20:48:38.572Z,8.10
2022-11-09T20:51:05.426Z,10.75
2022-11-09T20:53:33.035Z,11.07
2022-11-09T20:56:00.724Z,5.47
2022-11-09T20:58:29.475Z,7.95
2022-11-09T21:01:03.662Z,7.57
2022-11-09T21:03:31.326Z,10.63
2022-11-09T21:05:59.480Z,7.38
2022-11-09T21:08:27.241Z,10.27
2022-11-09T21:10:54.851Z,9.95
2022-11-09T21:13:22.820Z,13.40
2022-11-09T21:15:51.561Z,7.25
2022-11-09T21:18:19.310Z,16.80
2022-11-09T21:20:46.932Z,9.85
2022-11-09T21:23:31.749Z,8.73
2022-11-09T21:26:17.495Z,9.30
2022-11-09T21:29:02.311Z,10.93
2022-11-09T21:31:31.091Z,11.93
2022-11-09T21:33:58.452Z,9.90
2022-11-09T21:36:25.872Z,14.90
2022-11-09T21:38:53.249Z,11.15
2022-11-09T21:41:38.780Z,12.15
2022-11-09T21:44:06.483Z,11.30
2022-11-09T21:46:35.584Z,6.95
2022-11-09T21:49:04.017Z,10.60
2022-11-09T21:51:31.735Z,9.40
2022-11-09T21:53:59.090Z,9.77
2022-11-09T21:56:26.649Z,7.03
2022-11-09T21:58:54.242Z,8.07
2022-11-09T22:01:21.835Z,11.75
2022-11-09T22:03:51.058Z,10.45
2022-11-09T22:06:18.670Z,7.60
2022-11-09T22:08:47.250Z,10.25
2022-11-09T22:11:15.292Z,11.43
2022-11-09T22:14:00.105Z,5.95
2022-11-09T22:16:28.014Z,10.43
2022-11-09T22:19:14.389Z,8.23
2022-11-09T22:21:42.772Z,6.45
2022-11-09T22:24:10.675Z,8.60
2022-11-09T22:26:38.097Z,6.70
2022-11-09T22:29:05.685Z,10.20
2022-11-09T22:31:33.208Z,12.65
2022-11-09T22:34:01.999Z,6.63
2022-11-09T22:36:29.408Z,6.20
2022-11-09T22:38:56.835Z,9.07
2022-11-09T22:41:24.692Z,9.48
2022-11-09T22:43:53.877Z,9.77
2022-11-09T22:46:21.240Z,10.93
2022-11-09T22:48:48.685Z,9.65
2022-11-09T22:51:18.155Z,8.63
2022-11-09T22:53:48.287Z,10.68
2022-11-09T22:56:15.655Z,9.48
2022-11-09T22:58:44.196Z,5.75
2022-11-09T23:01:12.755Z,8.88
2022-11-09T23:03:40.329Z,7.70
2022-11-09T23:06:08.793Z,8.43
2022-11-09T23:08:39.387Z,9.43
2022-11-09T23:11:06.992Z,11.05
2022-11-09T23:13:34.549Z,12.40
2022-11-09T23:16:02.603Z,13.23
2022-11-09T23:18:48.115Z,11.32
2022-11-09T23:21:15.725Z,13.05
2022-11-09T23:23:44.563Z,12.23
2022-11-09T23:26:12.200Z,6.67
2022-11-09T23:28:39.626Z,11.35
2022-11-09T23:31:08.355Z,10.20
2022-11-09T23:33:35.860Z,13.65
2022-11-09T23:36:04.221Z,13.73
2022-11-09T23:38:33.037Z,13.80
2022-11-09T23:41:03.761Z,10.43
2022-11-09T23:43:31.137Z,10.43
2022-11-09T23:46:01.507Z,11.32
2022-11-09T23:48:29.082Z,13.68
2022-11-09T23:50:58.111Z,7.20
2022-11-09T23:53:25.863Z,10.48
2022-11-09T23:55:53.237Z,12.57
2022-11-09T23:58:21.959Z,11.40
